sensor_id;sensor_type;location;lat;lon;timestamp;temperature;humidity
33841;DHT22;20142;28.494;-16.312;2024-03-25T00:03:14;15.30;94.50
33841;DHT22;20142;28.494;-16.312;2024-03-25T00:08:15;15.30;94.50
33841;DHT22;20142;28.494;-16.312;2024-03-25T00:13:17;15.30;94.30
33841;DHT22;20142;28.494;-16.312;2024-03-25T00:18:21;15.30;94.60
33841;DHT22;20142;28.494;-16.312;2024-03-25T00:23:22;15.30;94.30
33841;DHT22;20142;28.494;-16.312;2024-03-25T00:28:24;15.20;94.20
33841;DHT22;20142;28.494;-16.312;2024-03-25T00:33:26;15.20;94.10
33841;DHT22;20142;28.494;-16.312;2024-03-25T00:38:28;15.10;94.10
33841;DHT22;20142;28.494;-16.312;2024-03-25T00:43:30;15.10;93.70
33841;DHT22;20142;28.494;-16.312;2024-03-25T00:48:32;15.20;93.70
33841;DHT22;20142;28.494;-16.312;2024-03-25T00:53:33;15.20;93.80
33841;DHT22;20142;28.494;-16.312;2024-03-25T00:58:35;15.20;93.60
33841;DHT22;20142;28.494;-16.312;2024-03-25T01:03:37;15.10;93.50
33841;DHT22;20142;28.494;-16.312;2024-03-25T01:08:38;15.00;93.50
33841;DHT22;20142;28.494;-16.312;2024-03-25T01:13:40;15.00;93.40
33841;DHT22;20142;28.494;-16.312;2024-03-25T01:18:45;14.90;93.50
33841;DHT22;20142;28.494;-16.312;2024-03-25T01:23:46;15.00;93.60
33841;DHT22;20142;28.494;-16.312;2024-03-25T01:28:48;14.90;93.40
33841;DHT22;20142;28.494;-16.312;2024-03-25T01:33:50;14.80;93.20
33841;DHT22;20142;28.494;-16.312;2024-03-25T01:38:52;14.70;93.00
33841;DHT22;20142;28.494;-16.312;2024-03-25T01:43:54;14.70;93.10
33841;DHT22;20142;28.494;-16.312;2024-03-25T01:48:55;14.70;92.80
33841;DHT22;20142;28.494;-16.312;2024-03-25T01:54:00;14.70;92.80
33841;DHT22;20142;28.494;-16.312;2024-03-25T01:59:02;14.70;92.90
33841;DHT22;20142;28.494;-16.312;2024-03-25T02:04:04;14.70;93.30
33841;DHT22;20142;28.494;-16.312;2024-03-25T02:09:06;14.70;93.10
33841;DHT22;20142;28.494;-16.312;2024-03-25T02:14:08;14.50;93.30
33841;DHT22;20142;28.494;-16.312;2024-03-25T02:19:12;14.60;93.60
33841;DHT22;20142;28.494;-16.312;2024-03-25T02:24:15;14.60;93.60
33841;DHT22;20142;28.494;-16.312;2024-03-25T02:29:20;14.60;93.90
33841;DHT22;20142;28.494;-16.312;2024-03-25T02:34:22;14.60;93.80
33841;DHT22;20142;28.494;-16.312;2024-03-25T02:39:23;14.60;93.90
33841;DHT22;20142;28.494;-16.312;2024-03-25T02:44:26;14.60;93.80
33841;DHT22;20142;28.494;-16.312;2024-03-25T02:49:28;14.50;93.90
33841;DHT22;20142;28.494;-16.312;2024-03-25T02:54:30;14.50;93.80
33841;DHT22;20142;28.494;-16.312;2024-03-25T02:59:32;14.40;93.70
33841;DHT22;20142;28.494;-16.312;2024-03-25T03:04:33;14.40;93.70
33841;DHT22;20142;28.494;-16.312;2024-03-25T03:09:35;14.50;93.20
33841;DHT22;20142;28.494;-16.312;2024-03-25T03:14:37;14.50;93.10
33841;DHT22;20142;28.494;-16.312;2024-03-25T03:19:39;14.50;92.70
33841;DHT22;20142;28.494;-16.312;2024-03-25T03:24:40;14.50;92.30
33841;DHT22;20142;28.494;-16.312;2024-03-25T03:29:42;14.50;92.00
33841;DHT22;20142;28.494;-16.312;2024-03-25T03:34:44;14.40;91.80
33841;DHT22;20142;28.494;-16.312;2024-03-25T03:39:45;14.40;92.00
33841;DHT22;20142;28.494;-16.312;2024-03-25T03:44:47;14.40;92.00
33841;DHT22;20142;28.494;-16.312;2024-03-25T03:49:49;14.40;92.30
33841;DHT22;20142;28.494;-16.312;2024-03-25T03:54:50;14.40;92.60
33841;DHT22;20142;28.494;-16.312;2024-03-25T03:59:52;14.40;92.90
33841;DHT22;20142;28.494;-16.312;2024-03-25T04:04:54;14.40;92.90
33841;DHT22;20142;28.494;-16.312;2024-03-25T04:09:58;14.40;92.90
33841;DHT22;20142;28.494;-16.312;2024-03-25T04:15:00;14.40;92.80
33841;DHT22;20142;28.494;-16.312;2024-03-25T04:20:02;14.40;92.80
33841;DHT22;20142;28.494;-16.312;2024-03-25T04:25:12;14.30;93.00
33841;DHT22;20142;28.494;-16.312;2024-03-25T04:30:15;14.20;93.10
33841;DHT22;20142;28.494;-16.312;2024-03-25T04:35:17;14.30;93.20
33841;DHT22;20142;28.494;-16.312;2024-03-25T04:40:19;14.30;93.00
33841;DHT22;20142;28.494;-16.312;2024-03-25T04:45:21;14.50;92.30
33841;DHT22;20142;28.494;-16.312;2024-03-25T04:50:22;14.70;91.40
33841;DHT22;20142;28.494;-16.312;2024-03-25T04:55:24;14.80;90.40
33841;DHT22;20142;28.494;-16.312;2024-03-25T05:00:26;14.80;89.70
33841;DHT22;20142;28.494;-16.312;2024-03-25T05:05:28;14.90;89.20
33841;DHT22;20142;28.494;-16.312;2024-03-25T05:10:30;14.80;88.80
33841;DHT22;20142;28.494;-16.312;2024-03-25T05:15:32;14.90;88.50
33841;DHT22;20142;28.494;-16.312;2024-03-25T05:20:33;14.90;88.60
33841;DHT22;20142;28.494;-16.312;2024-03-25T05:25:36;14.90;88.20
33841;DHT22;20142;28.494;-16.312;2024-03-25T05:30:38;14.90;88.60
33841;DHT22;20142;28.494;-16.312;2024-03-25T05:35:41;14.90;88.70
33841;DHT22;20142;28.494;-16.312;2024-03-25T05:40:42;14.90;89.40
33841;DHT22;20142;28.494;-16.312;2024-03-25T05:45:53;15.00;89.70
33841;DHT22;20142;28.494;-16.312;2024-03-25T05:51:02;15.00;90.10
33841;DHT22;20142;28.494;-16.312;2024-03-25T05:56:06;15.00;90.40
33841;DHT22;20142;28.494;-16.312;2024-03-25T06:01:08;15.10;90.50
33841;DHT22;20142;28.494;-16.312;2024-03-25T06:06:09;15.20;90.80
33841;DHT22;20142;28.494;-16.312;2024-03-25T06:11:11;15.20;90.80
33841;DHT22;20142;28.494;-16.312;2024-03-25T06:16:14;15.30;91.00
33841;DHT22;20142;28.494;-16.312;2024-03-25T06:21:15;15.40;91.20
33841;DHT22;20142;28.494;-16.312;2024-03-25T06:26:17;15.60;91.20
33841;DHT22;20142;28.494;-16.312;2024-03-25T06:31:19;15.50;91.30
33841;DHT22;20142;28.494;-16.312;2024-03-25T06:36:39;15.60;91.30
33841;DHT22;20142;28.494;-16.312;2024-03-25T06:41:41;15.50;91.40
33841;DHT22;20142;28.494;-16.312;2024-03-25T06:46:43;15.50;91.40
33841;DHT22;20142;28.494;-16.312;2024-03-25T06:51:44;15.50;91.60
33841;DHT22;20142;28.494;-16.312;2024-03-25T06:56:46;15.60;91.50
33841;DHT22;20142;28.494;-16.312;2024-03-25T07:01:48;15.60;91.60
33841;DHT22;20142;28.494;-16.312;2024-03-25T07:06:49;15.60;91.20
33841;DHT22;20142;28.494;-16.312;2024-03-25T07:11:51;15.70;90.90
33841;DHT22;20142;28.494;-16.312;2024-03-25T07:16:53;15.90;90.60
33841;DHT22;20142;28.494;-16.312;2024-03-25T07:21:55;16.00;90.20
33841;DHT22;20142;28.494;-16.312;2024-03-25T07:26:56;16.10;89.80
33841;DHT22;20142;28.494;-16.312;2024-03-25T07:31:58;16.10;89.70
33841;DHT22;20142;28.494;-16.312;2024-03-25T07:37:00;16.20;89.10
33841;DHT22;20142;28.494;-16.312;2024-03-25T07:42:01;16.30;89.30
33841;DHT22;20142;28.494;-16.312;2024-03-25T07:47:03;16.30;89.00
33841;DHT22;20142;28.494;-16.312;2024-03-25T07:52:06;16.40;89.10
33841;DHT22;20142;28.494;-16.312;2024-03-25T07:57:08;16.50;88.90
33841;DHT22;20142;28.494;-16.312;2024-03-25T08:02:10;16.40;88.70
33841;DHT22;20142;28.494;-16.312;2024-03-25T08:07:12;16.30;89.40
33841;DHT22;20142;28.494;-16.312;2024-03-25T08:12:13;16.30;89.90
33841;DHT22;20142;28.494;-16.312;2024-03-25T08:17:15;16.30;90.60
33841;DHT22;20142;28.494;-16.312;2024-03-25T08:22:17;16.20;91.40
33841;DHT22;20142;28.494;-16.312;2024-03-25T08:27:19;16.20;92.20
33841;DHT22;20142;28.494;-16.312;2024-03-25T08:32:20;16.30;92.70
33841;DHT22;20142;28.494;-16.312;2024-03-25T08:37:22;16.40;93.00
33841;DHT22;20142;28.494;-16.312;2024-03-25T08:42:24;16.80;92.90
33841;DHT22;20142;28.494;-16.312;2024-03-25T08:47:26;17.00;93.20
33841;DHT22;20142;28.494;-16.312;2024-03-25T08:52:28;17.10;93.40
33841;DHT22;20142;28.494;-16.312;2024-03-25T08:57:29;17.20;93.40
33841;DHT22;20142;28.494;-16.312;2024-03-25T09:02:31;17.30;93.70
33841;DHT22;20142;28.494;-16.312;2024-03-25T09:07:34;17.30;93.70
33841;DHT22;20142;28.494;-16.312;2024-03-25T09:12:35;17.30;94.00
33841;DHT22;20142;28.494;-16.312;2024-03-25T09:17:37;17.20;94.20
33841;DHT22;20142;28.494;-16.312;2024-03-25T09:22:40;17.50;94.10
33841;DHT22;20142;28.494;-16.312;2024-03-25T09:27:48;17.60;94.00
33841;DHT22;20142;28.494;-16.312;2024-03-25T09:32:50;17.50;94.30
33841;DHT22;20142;28.494;-16.312;2024-03-25T09:37:52;17.80;94.40
33841;DHT22;20142;28.494;-16.312;2024-03-25T09:42:56;18.10;93.80
33841;DHT22;20142;28.494;-16.312;2024-03-25T09:47:58;18.30;93.00
33841;DHT22;20142;28.494;-16.312;2024-03-25T09:53:00;18.40;92.30
33841;DHT22;20142;28.494;-16.312;2024-03-25T09:58:03;18.60;91.80
33841;DHT22;20142;28.494;-16.312;2024-03-25T10:03:05;18.80;91.20
33841;DHT22;20142;28.494;-16.312;2024-03-25T10:08:07;19.00;90.90
33841;DHT22;20142;28.494;-16.312;2024-03-25T10:13:09;19.10;89.70
33841;DHT22;20142;28.494;-16.312;2024-03-25T10:18:13;18.90;89.90
33841;DHT22;20142;28.494;-16.312;2024-03-25T10:23:15;19.30;89.50
33841;DHT22;20142;28.494;-16.312;2024-03-25T10:28:17;19.10;88.60
33841;DHT22;20142;28.494;-16.312;2024-03-25T10:33:19;19.20;87.30
33841;DHT22;20142;28.494;-16.312;2024-03-25T10:38:21;19.20;86.80
33841;DHT22;20142;28.494;-16.312;2024-03-25T10:43:28;19.30;86.60
33841;DHT22;20142;28.494;-16.312;2024-03-25T10:48:37;19.40;86.10
33841;DHT22;20142;28.494;-16.312;2024-03-25T10:53:41;19.40;86.30
33841;DHT22;20142;28.494;-16.312;2024-03-25T10:58:44;19.60;86.50
33841;DHT22;20142;28.494;-16.312;2024-03-25T11:03:48;19.60;85.60
33841;DHT22;20142;28.494;-16.312;2024-03-25T11:08:58;19.60;85.40
33841;DHT22;20142;28.494;-16.312;2024-03-25T11:14:03;19.70;85.00
33841;DHT22;20142;28.494;-16.312;2024-03-25T11:19:05;19.70;84.40
33841;DHT22;20142;28.494;-16.312;2024-03-25T11:24:08;19.90;84.00
33841;DHT22;20142;28.494;-16.312;2024-03-25T11:29:10;20.20;84.30
33841;DHT22;20142;28.494;-16.312;2024-03-25T11:34:12;20.20;83.40
33841;DHT22;20142;28.494;-16.312;2024-03-25T11:39:13;20.50;83.10
33841;DHT22;20142;28.494;-16.312;2024-03-25T11:44:16;20.50;81.70
33841;DHT22;20142;28.494;-16.312;2024-03-25T11:49:21;20.40;81.10
33841;DHT22;20142;28.494;-16.312;2024-03-25T11:54:22;20.30;81.10
33841;DHT22;20142;28.494;-16.312;2024-03-25T11:59:25;20.30;81.30
33841;DHT22;20142;28.494;-16.312;2024-03-25T12:04:27;20.30;81.20
33841;DHT22;20142;28.494;-16.312;2024-03-25T12:09:29;20.30;81.80
33841;DHT22;20142;28.494;-16.312;2024-03-25T12:14:49;20.50;82.30
33841;DHT22;20142;28.494;-16.312;2024-03-25T12:20:01;20.70;82.00
33841;DHT22;20142;28.494;-16.312;2024-03-25T12:25:08;20.80;82.00
33841;DHT22;20142;28.494;-16.312;2024-03-25T12:30:10;20.90;82.00
33841;DHT22;20142;28.494;-16.312;2024-03-25T12:35:14;20.90;82.40
33841;DHT22;20142;28.494;-16.312;2024-03-25T12:40:29;21.10;82.60
33841;DHT22;20142;28.494;-16.312;2024-03-25T12:45:33;21.10;82.50
33841;DHT22;20142;28.494;-16.312;2024-03-25T12:50:35;21.40;82.80
33841;DHT22;20142;28.494;-16.312;2024-03-25T12:55:37;21.70;82.60
33841;DHT22;20142;28.494;-16.312;2024-03-25T13:00:39;21.30;82.70
33841;DHT22;20142;28.494;-16.312;2024-03-25T13:05:43;21.20;82.60
33841;DHT22;20142;28.494;-16.312;2024-03-25T13:10:45;20.90;82.80
33841;DHT22;20142;28.494;-16.312;2024-03-25T13:15:47;20.70;84.60
33841;DHT22;20142;28.494;-16.312;2024-03-25T13:20:48;20.50;85.10
33841;DHT22;20142;28.494;-16.312;2024-03-25T13:25:50;20.50;84.90
33841;DHT22;20142;28.494;-16.312;2024-03-25T14:36:53;20.30;86.10
33841;DHT22;20142;28.494;-16.312;2024-03-25T14:41:55;20.90;86.30
33841;DHT22;20142;28.494;-16.312;2024-03-25T14:46:57;20.70;86.40
33841;DHT22;20142;28.494;-16.312;2024-03-25T14:51:59;21.20;85.10
33841;DHT22;20142;28.494;-16.312;2024-03-25T14:57:01;21.10;85.00
33841;DHT22;20142;28.494;-16.312;2024-03-25T15:02:03;21.10;85.10
33841;DHT22;20142;28.494;-16.312;2024-03-25T15:07:05;21.00;84.90
33841;DHT22;20142;28.494;-16.312;2024-03-25T15:12:06;21.70;84.20
33841;DHT22;20142;28.494;-16.312;2024-03-25T15:17:08;22.60;83.30
33841;DHT22;20142;28.494;-16.312;2024-03-25T15:22:10;22.40;83.30
33841;DHT22;20142;28.494;-16.312;2024-03-25T15:27:12;21.70;83.40
33841;DHT22;20142;28.494;-16.312;2024-03-25T15:32:13;22.20;84.00
33841;DHT22;20142;28.494;-16.312;2024-03-25T15:37:15;21.60;83.20
33841;DHT22;20142;28.494;-16.312;2024-03-25T15:42:17;21.30;83.40
33841;DHT22;20142;28.494;-16.312;2024-03-25T15:47:20;22.10;82.60
33841;DHT22;20142;28.494;-16.312;2024-03-25T15:52:22;21.10;82.90
33841;DHT22;20142;28.494;-16.312;2024-03-25T15:57:24;20.70;85.10
33841;DHT22;20142;28.494;-16.312;2024-03-25T16:02:25;21.70;83.40
33841;DHT22;20142;28.494;-16.312;2024-03-25T16:07:28;22.30;82.70
33841;DHT22;20142;28.494;-16.312;2024-03-25T16:12:33;23.80;81.00
33841;DHT22;20142;28.494;-16.312;2024-03-25T16:17:34;22.80;81.40
33841;DHT22;20142;28.494;-16.312;2024-03-25T16:22:36;21.70;82.00
33841;DHT22;20142;28.494;-16.312;2024-03-25T16:27:38;21.10;82.40
33841;DHT22;20142;28.494;-16.312;2024-03-25T16:32:39;20.80;83.40
33841;DHT22;20142;28.494;-16.312;2024-03-25T16:37:41;20.20;84.40
33841;DHT22;20142;28.494;-16.312;2024-03-25T16:42:43;21.20;83.60
33841;DHT22;20142;28.494;-16.312;2024-03-25T16:47:45;20.40;84.70
33841;DHT22;20142;28.494;-16.312;2024-03-25T16:52:47;20.00;85.40
33841;DHT22;20142;28.494;-16.312;2024-03-25T16:57:48;19.50;86.00
33841;DHT22;20142;28.494;-16.312;2024-03-25T17:02:50;19.80;86.40
33841;DHT22;20142;28.494;-16.312;2024-03-25T17:07:52;19.40;86.30
33841;DHT22;20142;28.494;-16.312;2024-03-25T17:12:54;19.30;87.00
33841;DHT22;20142;28.494;-16.312;2024-03-25T17:17:55;18.90;86.70
33841;DHT22;20142;28.494;-16.312;2024-03-25T17:22:57;18.70;88.30
33841;DHT22;20142;28.494;-16.312;2024-03-25T17:27:59;18.70;87.90
33841;DHT22;20142;28.494;-16.312;2024-03-25T17:33:01;18.90;87.80
33841;DHT22;20142;28.494;-16.312;2024-03-25T17:38:02;18.80;88.20
33841;DHT22;20142;28.494;-16.312;2024-03-25T17:43:04;19.60;87.40
33841;DHT22;20142;28.494;-16.312;2024-03-25T17:48:06;19.30;87.80
33841;DHT22;20142;28.494;-16.312;2024-03-25T17:53:08;18.80;88.60
33841;DHT22;20142;28.494;-16.312;2024-03-25T17:58:10;18.60;88.20
33841;DHT22;20142;28.494;-16.312;2024-03-25T18:03:12;18.20;89.50
33841;DHT22;20142;28.494;-16.312;2024-03-25T18:08:13;18.00;90.50
33841;DHT22;20142;28.494;-16.312;2024-03-25T18:13:15;17.90;91.30
33841;DHT22;20142;28.494;-16.312;2024-03-25T18:18:18;17.80;91.50
33841;DHT22;20142;28.494;-16.312;2024-03-25T18:23:20;17.70;91.70
33841;DHT22;20142;28.494;-16.312;2024-03-25T18:28:22;17.60;92.20
33841;DHT22;20142;28.494;-16.312;2024-03-25T18:33:23;17.40;92.30
33841;DHT22;20142;28.494;-16.312;2024-03-25T18:38:25;17.30;92.80
33841;DHT22;20142;28.494;-16.312;2024-03-25T18:43:27;17.10;93.20
33841;DHT22;20142;28.494;-16.312;2024-03-25T18:48:29;17.00;93.70
33841;DHT22;20142;28.494;-16.312;2024-03-25T18:53:30;16.90;93.40
33841;DHT22;20142;28.494;-16.312;2024-03-25T18:58:32;16.80;93.80
33841;DHT22;20142;28.494;-16.312;2024-03-25T19:03:34;16.90;93.60
33841;DHT22;20142;28.494;-16.312;2024-03-25T19:08:36;16.70;93.80
33841;DHT22;20142;28.494;-16.312;2024-03-25T19:13:39;16.60;93.60
33841;DHT22;20142;28.494;-16.312;2024-03-25T19:18:41;16.60;93.70
33841;DHT22;20142;28.494;-16.312;2024-03-25T19:23:42;16.50;94.00
33841;DHT22;20142;28.494;-16.312;2024-03-25T19:28:44;16.30;94.00
33841;DHT22;20142;28.494;-16.312;2024-03-25T19:33:46;16.30;94.20
33841;DHT22;20142;28.494;-16.312;2024-03-25T19:38:48;16.30;94.60
33841;DHT22;20142;28.494;-16.312;2024-03-25T19:43:53;16.40;94.60
33841;DHT22;20142;28.494;-16.312;2024-03-25T19:48:54;16.30;94.60
33841;DHT22;20142;28.494;-16.312;2024-03-25T19:53:56;16.20;94.70
33841;DHT22;20142;28.494;-16.312;2024-03-25T19:58:58;16.10;94.90
33841;DHT22;20142;28.494;-16.312;2024-03-25T20:04:00;16.10;94.70
33841;DHT22;20142;28.494;-16.312;2024-03-25T20:09:01;16.00;95.00
33841;DHT22;20142;28.494;-16.312;2024-03-25T20:14:03;15.90;95.00
33841;DHT22;20142;28.494;-16.312;2024-03-25T20:19:05;15.80;94.50
33841;DHT22;20142;28.494;-16.312;2024-03-25T20:24:07;15.80;94.20
33841;DHT22;20142;28.494;-16.312;2024-03-25T20:29:09;15.70;93.80
33841;DHT22;20142;28.494;-16.312;2024-03-25T20:34:10;15.60;93.40
33841;DHT22;20142;28.494;-16.312;2024-03-25T20:39:12;15.70;93.30
33841;DHT22;20142;28.494;-16.312;2024-03-25T20:44:14;15.60;92.40
33841;DHT22;20142;28.494;-16.312;2024-03-25T20:49:16;15.60;91.50
33841;DHT22;20142;28.494;-16.312;2024-03-25T20:54:18;15.60;90.40
33841;DHT22;20142;28.494;-16.312;2024-03-25T20:59:20;15.70;89.50
33841;DHT22;20142;28.494;-16.312;2024-03-25T21:04:22;15.60;89.60
33841;DHT22;20142;28.494;-16.312;2024-03-25T21:09:23;15.60;89.60
33841;DHT22;20142;28.494;-16.312;2024-03-25T21:14:25;15.60;89.60
33841;DHT22;20142;28.494;-16.312;2024-03-25T21:19:27;15.50;89.70
33841;DHT22;20142;28.494;-16.312;2024-03-25T21:24:28;15.40;90.40
33841;DHT22;20142;28.494;-16.312;2024-03-25T21:29:30;15.40;91.30
33841;DHT22;20142;28.494;-16.312;2024-03-25T21:34:32;15.40;91.40
33841;DHT22;20142;28.494;-16.312;2024-03-25T21:39:34;15.40;91.80
33841;DHT22;20142;28.494;-16.312;2024-03-25T21:44:35;15.50;91.90
33841;DHT22;20142;28.494;-16.312;2024-03-25T21:49:37;15.50;91.50
33841;DHT22;20142;28.494;-16.312;2024-03-25T21:54:39;15.50;91.90
33841;DHT22;20142;28.494;-16.312;2024-03-25T21:59:43;15.40;92.50
33841;DHT22;20142;28.494;-16.312;2024-03-25T22:04:48;15.50;92.80
33841;DHT22;20142;28.494;-16.312;2024-03-25T22:09:50;15.50;92.80
33841;DHT22;20142;28.494;-16.312;2024-03-25T22:14:52;15.40;93.40
33841;DHT22;20142;28.494;-16.312;2024-03-25T22:19:53;15.40;94.50
33841;DHT22;20142;28.494;-16.312;2024-03-25T22:24:55;15.30;95.80
33841;DHT22;20142;28.494;-16.312;2024-03-25T22:29:57;15.30;97.00
33841;DHT22;20142;28.494;-16.312;2024-03-25T22:34:59;15.30;97.90
33841;DHT22;20142;28.494;-16.312;2024-03-25T22:40:02;15.40;97.70
33841;DHT22;20142;28.494;-16.312;2024-03-25T22:45:04;15.40;98.30
33841;DHT22;20142;28.494;-16.312;2024-03-25T22:50:06;15.40;98.30
33841;DHT22;20142;28.494;-16.312;2024-03-25T22:55:08;15.30;97.60
33841;DHT22;20142;28.494;-16.312;2024-03-25T23:00:11;15.30;97.70
33841;DHT22;20142;28.494;-16.312;2024-03-25T23:05:17;15.40;97.50
33841;DHT22;20142;28.494;-16.312;2024-03-25T23:10:18;15.30;97.50
33841;DHT22;20142;28.494;-16.312;2024-03-25T23:15:20;15.30;97.30
33841;DHT22;20142;28.494;-16.312;2024-03-25T23:20:22;15.30;97.10
33841;DHT22;20142;28.494;-16.312;2024-03-25T23:25:24;15.30;96.80
33841;DHT22;20142;28.494;-16.312;2024-03-25T23:30:26;15.30;96.00
33841;DHT22;20142;28.494;-16.312;2024-03-25T23:35:28;15.20;95.90
33841;DHT22;20142;28.494;-16.312;2024-03-25T23:40:30;15.30;96.00
33841;DHT22;20142;28.494;-16.312;2024-03-25T23:45:32;15.30;96.10
33841;DHT22;20142;28.494;-16.312;2024-03-25T23:50:34;15.30;96.60
33841;DHT22;20142;28.494;-16.312;2024-03-25T23:55:36;15.30;96.80
